createdAt,value
2019-03-26T00:00:08.979Z,9.30
2019-03-26T00:02:38.524Z,9.30
2019-03-26T00:05:08.030Z,9.30
2019-03-26T00:07:37.520Z,9.30
2019-03-26T00:10:07.090Z,9.30
2019-03-26T00:12:36.588Z,9.40
2019-03-26T00:15:06.704Z,9.40
2019-03-26T00:17:36.183Z,9.30
2019-03-26T00:20:06.618Z,9.30
2019-03-26T00:22:36.088Z,9.30
2019-03-26T00:25:06.272Z,9.30
2019-03-26T00:27:35.792Z,9.30
2019-03-26T00:30:05.970Z,9.30
2019-03-26T00:32:35.448Z,9.30
2019-03-26T00:35:05.452Z,9.30
2019-03-26T00:37:34.852Z,9.30
2019-03-26T00:40:05.360Z,9.30
2019-03-26T00:42:34.944Z,9.20
2019-03-26T00:45:05.516Z,9.20
2019-03-26T00:47:35.016Z,9.20
2019-03-26T00:50:06.027Z,9.20
2019-03-26T00:52:35.592Z,9.20
2019-03-26T00:55:06.997Z,9.20
2019-03-26T00:57:36.521Z,9.20
2019-03-26T01:00:08.032Z,9.20
2019-03-26T01:02:37.494Z,9.20
2019-03-26T01:05:08.289Z,9.20
2019-03-26T01:07:38.018Z,9.20
2019-03-26T01:10:09.294Z,9.20
2019-03-26T01:12:38.778Z,9.20
2019-03-26T01:15:08.329Z,9.20
2019-03-26T01:17:37.825Z,9.20
2019-03-26T01:20:08.962Z,9.20
2019-03-26T01:22:38.417Z,9.20
2019-03-26T01:25:07.884Z,9.20
2019-03-26T01:27:37.398Z,9.20
2019-03-26T01:30:07.802Z,9.20
2019-03-26T01:32:37.498Z,9.20
2019-03-26T01:35:07.354Z,9.20
2019-03-26T01:37:36.767Z,9.10
2019-03-26T01:40:06.480Z,9.10
2019-03-26T01:42:35.883Z,9.10
2019-03-26T01:45:07.242Z,9.10
2019-03-26T01:47:36.679Z,9.10
2019-03-26T01:50:06.195Z,9.10
2019-03-26T01:52:35.751Z,9.10
2019-03-26T01:55:06.630Z,9.10
2019-03-26T01:57:36.112Z,9.10
2019-03-26T02:00:06.580Z,9.10
2019-03-26T02:02:36.091Z,9.10
2019-03-26T02:05:07.270Z,9.10
2019-03-26T02:07:38.911Z,9.10
2019-03-26T02:10:07.862Z,9.10
2019-03-26T02:12:37.344Z,9.10
2019-03-26T02:15:08.555Z,9.20
2019-03-26T02:17:38.058Z,9.10
2019-03-26T02:20:09.156Z,9.20
2019-03-26T02:22:38.722Z,9.20
2019-03-26T02:25:08.240Z,9.20
2019-03-26T02:27:37.668Z,9.20
2019-03-26T02:30:07.356Z,9.20
2019-03-26T02:32:36.752Z,9.20
2019-03-26T02:35:17.837Z,9.20
2019-03-26T02:37:37.428Z,9.20
2019-03-26T02:40:07.519Z,9.20
2019-03-26T02:42:36.939Z,9.20
2019-03-26T02:45:06.669Z,9.20
2019-03-26T02:47:36.121Z,9.20
2019-03-26T02:50:08.495Z,9.20
2019-03-26T02:52:38.008Z,9.20
2019-03-26T02:55:08.108Z,9.20
2019-03-26T02:57:37.616Z,9.10
2019-03-26T03:00:09.302Z,9.10
2019-03-26T03:02:38.759Z,9.00
2019-03-26T03:05:08.651Z,9.00
2019-03-26T03:07:38.132Z,9.00
2019-03-26T03:10:08.587Z,9.00
2019-03-26T03:12:38.222Z,9.00
2019-03-26T03:15:07.809Z,8.90
2019-03-26T03:17:37.199Z,8.90
2019-03-26T03:20:06.856Z,8.90
2019-03-26T03:22:36.292Z,8.90
2019-03-26T03:25:05.816Z,8.90
2019-03-26T03:27:35.278Z,8.90
2019-03-26T03:30:06.687Z,8.90
2019-03-26T03:32:36.227Z,8.90
2019-03-26T03:35:07.020Z,8.80
2019-03-26T03:37:36.571Z,8.80
2019-03-26T03:40:06.987Z,8.80
2019-03-26T03:42:36.575Z,8.70
2019-03-26T03:45:08.519Z,8.70
2019-03-26T03:47:38.618Z,8.60
2019-03-26T03:50:09.165Z,8.70
2019-03-26T03:52:40.026Z,8.60
2019-03-26T03:55:09.853Z,8.60
2019-03-26T03:57:39.657Z,8.50
2019-03-26T04:00:20.798Z,8.50
2019-03-26T04:02:50.232Z,8.50
2019-03-26T04:05:19.641Z,8.50
2019-03-26T04:07:49.061Z,8.40
2019-03-26T04:10:18.589Z,8.40
2019-03-26T04:12:48.065Z,8.40
2019-03-26T04:15:17.449Z,8.40
2019-03-26T04:17:46.890Z,8.30
2019-03-26T04:20:16.478Z,8.30
2019-03-26T04:22:45.909Z,8.30
2019-03-26T04:25:15.439Z,8.30
2019-03-26T04:27:45.162Z,8.30
2019-03-26T04:30:29.006Z,8.30
2019-03-26T04:32:58.568Z,8.40
2019-03-26T04:35:27.968Z,8.40
2019-03-26T04:37:57.520Z,8.40
2019-03-26T04:40:26.957Z,8.40
2019-03-26T04:42:56.426Z,8.40
2019-03-26T04:45:25.971Z,8.40
2019-03-26T04:47:55.485Z,8.40
2019-03-26T04:50:24.961Z,8.40
2019-03-26T04:52:54.462Z,8.30
2019-03-26T04:55:24.077Z,8.30
2019-03-26T04:57:53.513Z,8.30
2019-03-26T05:00:23.095Z,8.30
2019-03-26T05:02:52.601Z,8.30
2019-03-26T05:05:22.097Z,8.30
2019-03-26T05:07:51.626Z,8.30
2019-03-26T05:10:21.173Z,8.30
2019-03-26T05:12:50.717Z,8.20
2019-03-26T05:15:20.137Z,8.10
2019-03-26T05:17:49.699Z,8.10
2019-03-26T05:20:19.176Z,8.10
2019-03-26T05:22:48.884Z,8.00
2019-03-26T05:25:18.289Z,8.00
2019-03-26T05:27:47.741Z,8.00
2019-03-26T05:30:17.218Z,8.00
2019-03-26T05:32:46.661Z,8.00
2019-03-26T05:35:16.243Z,8.00
2019-03-26T05:37:45.729Z,8.00
2019-03-26T05:40:15.249Z,8.00
2019-03-26T05:42:44.837Z,8.10
2019-03-26T05:45:14.473Z,8.10
2019-03-26T05:47:43.925Z,8.10
2019-03-26T05:50:13.601Z,8.20
2019-03-26T05:52:43.567Z,8.20
2019-03-26T05:55:13.145Z,8.20
2019-03-26T05:57:42.709Z,8.30
2019-03-26T06:00:15.137Z,8.30
2019-03-26T06:02:44.573Z,8.40
2019-03-26T06:05:14.154Z,8.40
2019-03-26T06:07:43.581Z,8.50
2019-03-26T06:10:13.382Z,8.50
2019-03-26T06:12:42.785Z,8.60
2019-03-26T06:15:12.505Z,8.60
2019-03-26T06:17:42.032Z,8.60
2019-03-26T06:20:12.882Z,8.70
2019-03-26T06:22:42.439Z,8.70
2019-03-26T06:25:12.341Z,8.70
2019-03-26T06:27:41.855Z,8.80
2019-03-26T06:30:11.722Z,8.80
2019-03-26T06:32:41.410Z,8.80
2019-03-26T06:35:11.185Z,8.90
2019-03-26T06:37:40.620Z,8.90
2019-03-26T06:40:10.895Z,8.90
2019-03-26T06:42:40.316Z,8.90
2019-03-26T06:45:11.034Z,8.90
2019-03-26T06:47:40.530Z,9.00
2019-03-26T06:50:11.961Z,9.00
2019-03-26T06:52:41.500Z,9.10
2019-03-26T06:55:11.179Z,9.20
2019-03-26T06:57:40.711Z,9.20
2019-03-26T07:00:11.885Z,9.20
2019-03-26T07:02:41.914Z,9.30
2019-03-26T07:05:11.613Z,9.30
2019-03-26T07:07:41.295Z,9.30
2019-03-26T07:10:11.930Z,9.30
2019-03-26T07:12:41.437Z,9.30
2019-03-26T07:15:11.117Z,9.30
2019-03-26T07:17:40.642Z,9.30
2019-03-26T07:20:10.481Z,9.30
2019-03-26T07:22:40.041Z,9.30
2019-03-26T07:25:10.373Z,9.40
2019-03-26T07:27:39.857Z,9.40
2019-03-26T07:30:11.568Z,9.50
2019-03-26T07:32:41.129Z,9.50
2019-03-26T07:35:10.777Z,9.50
2019-03-26T07:37:45.632Z,9.60
2019-03-26T07:40:11.843Z,9.60
2019-03-26T07:42:41.313Z,9.70
2019-03-26T07:45:11.125Z,9.70
2019-03-26T07:47:40.640Z,9.80
2019-03-26T07:50:10.202Z,9.80
2019-03-26T07:52:39.709Z,9.80
2019-03-26T07:55:09.337Z,9.90
2019-03-26T07:57:38.810Z,9.90
2019-03-26T08:00:10.682Z,9.90
2019-03-26T08:02:40.145Z,9.90
2019-03-26T08:05:10.203Z,9.80
2019-03-26T08:07:39.597Z,9.80
2019-03-26T08:10:09.852Z,9.70
2019-03-26T08:12:39.330Z,9.70
2019-03-26T08:15:09.033Z,9.70
2019-03-26T08:17:38.912Z,9.70
2019-03-26T08:20:08.742Z,9.70
2019-03-26T08:22:39.878Z,9.70
2019-03-26T08:25:11.817Z,9.70
2019-03-26T08:27:41.214Z,9.80
2019-03-26T08:30:11.050Z,9.80
2019-03-26T08:32:40.456Z,9.80
2019-03-26T08:35:09.887Z,9.80
2019-03-26T08:37:39.276Z,9.80
2019-03-26T08:40:09.515Z,9.80
2019-03-26T08:42:38.918Z,9.80
2019-03-26T08:45:10.083Z,9.80
2019-03-26T08:47:39.579Z,9.90
2019-03-26T08:50:09.313Z,10.10
2019-03-26T08:52:38.851Z,10.30
2019-03-26T08:55:09.825Z,10.50
2019-03-26T08:57:39.297Z,10.70
2019-03-26T09:00:11.264Z,10.80
2019-03-26T09:02:40.845Z,11.10
2019-03-26T09:05:10.507Z,11.30
2019-03-26T09:07:40.044Z,11.40
2019-03-26T09:10:10.833Z,11.50
2019-03-26T09:12:40.367Z,11.60
2019-03-26T09:15:14.065Z,11.60
2019-03-26T09:17:44.433Z,11.70
2019-03-26T09:20:13.299Z,11.70
2019-03-26T09:22:42.893Z,11.60
2019-03-26T09:25:12.674Z,11.60
2019-03-26T09:27:42.169Z,11.60
2019-03-26T09:30:12.708Z,11.50
2019-03-26T09:32:42.241Z,11.50
2019-03-26T09:35:11.967Z,11.40
2019-03-26T09:37:41.673Z,11.40
2019-03-26T09:40:11.499Z,11.40
2019-03-26T09:42:41.005Z,11.30
2019-03-26T09:45:11.346Z,11.30
2019-03-26T09:47:40.851Z,11.40
2019-03-26T09:50:11.788Z,11.50
2019-03-26T09:52:41.302Z,11.50
2019-03-26T09:55:11.100Z,11.60
2019-03-26T09:57:40.703Z,11.80
2019-03-26T10:00:11.734Z,11.80
2019-03-26T10:02:42.963Z,11.80
2019-03-26T10:05:13.006Z,11.80
2019-03-26T10:07:42.574Z,11.80
2019-03-26T10:10:12.874Z,11.90
2019-03-26T10:12:42.351Z,12.00
2019-03-26T10:15:11.999Z,12.00
2019-03-26T10:17:41.411Z,12.00
2019-03-26T10:20:11.329Z,12.00
2019-03-26T10:22:40.857Z,12.10
2019-03-26T10:25:11.201Z,12.20
2019-03-26T10:27:41.069Z,12.20
2019-03-26T10:30:12.766Z,12.20
2019-03-26T10:32:42.284Z,12.30
2019-03-26T10:35:12.033Z,12.20
2019-03-26T10:37:41.565Z,12.20
2019-03-26T10:40:12.605Z,12.20
2019-03-26T10:42:42.183Z,12.30
2019-03-26T10:45:11.673Z,12.40
2019-03-26T10:47:41.210Z,12.50
2019-03-26T10:50:10.821Z,12.50
2019-03-26T10:52:40.209Z,12.50
2019-03-26T10:55:09.842Z,12.60
2019-03-26T10:57:39.289Z,12.60
2019-03-26T11:00:08.853Z,12.50
2019-03-26T11:02:38.381Z,12.40
2019-03-26T11:05:08.302Z,12.30
2019-03-26T11:07:37.872Z,12.30
2019-03-26T11:10:08.383Z,12.40
2019-03-26T11:12:37.925Z,12.50
2019-03-26T11:15:10.361Z,12.70
2019-03-26T11:17:39.851Z,12.90
2019-03-26T11:20:10.572Z,13.00
2019-03-26T11:22:40.114Z,13.10
2019-03-26T11:25:12.164Z,13.20
2019-03-26T11:27:41.057Z,13.40
2019-03-26T11:30:10.737Z,13.50
2019-03-26T11:32:40.290Z,13.50
2019-03-26T11:35:10.380Z,13.60
2019-03-26T11:37:39.999Z,13.60
2019-03-26T11:40:09.844Z,13.60
2019-03-26T11:42:39.282Z,13.60
2019-03-26T11:45:09.782Z,13.70
2019-03-26T11:47:40.146Z,13.80
2019-03-26T11:50:10.192Z,13.90
2019-03-26T11:52:40.401Z,14.00
2019-03-26T11:55:10.969Z,14.00
2019-03-26T11:57:40.362Z,14.10
2019-03-26T12:00:12.795Z,14.00
2019-03-26T12:02:42.299Z,13.90
2019-03-26T12:05:12.129Z,14.00
2019-03-26T12:07:43.057Z,14.10
2019-03-26T12:10:12.896Z,14.10
2019-03-26T12:12:42.357Z,14.20
2019-03-26T12:15:12.373Z,14.20
2019-03-26T12:17:41.822Z,14.20
2019-03-26T12:20:11.592Z,14.10
2019-03-26T12:22:41.134Z,14.20
2019-03-26T12:25:10.732Z,14.20
2019-03-26T12:27:40.223Z,14.20
2019-03-26T12:30:12.443Z,14.20
2019-03-26T12:32:41.864Z,14.20
2019-03-26T12:35:14.437Z,14.20
2019-03-26T12:37:43.931Z,14.30
2019-03-26T12:40:13.645Z,14.10
2019-03-26T12:42:43.072Z,14.10
2019-03-26T12:45:14.101Z,14.10
2019-03-26T12:47:43.597Z,14.10
2019-03-26T12:50:13.369Z,14.10
2019-03-26T12:52:42.906Z,14.10
2019-03-26T12:55:12.417Z,14.10
2019-03-26T12:57:41.835Z,14.10
2019-03-26T13:00:11.548Z,14.10
2019-03-26T13:02:41.117Z,14.10
2019-03-26T13:05:10.654Z,14.10
2019-03-26T13:07:40.130Z,14.10
2019-03-26T13:10:13.974Z,14.10
2019-03-26T13:12:41.088Z,14.10
2019-03-26T13:15:10.676Z,14.10
2019-03-26T13:17:40.202Z,14.20
2019-03-26T13:20:09.708Z,14.20
2019-03-26T13:22:39.227Z,14.20
2019-03-26T13:25:09.384Z,14.10
2019-03-26T13:27:39.038Z,14.10
2019-03-26T13:30:09.164Z,14.10
2019-03-26T13:32:38.652Z,14.00
2019-03-26T13:35:08.544Z,14.00
2019-03-26T13:37:38.060Z,13.90
2019-03-26T13:40:07.870Z,13.90
2019-03-26T13:42:37.425Z,13.80
2019-03-26T13:45:07.671Z,13.80
2019-03-26T13:47:37.180Z,13.90
2019-03-26T13:50:08.087Z,13.90
2019-03-26T13:52:37.768Z,13.80
2019-03-26T13:55:08.658Z,13.80
2019-03-26T13:57:38.175Z,13.70
2019-03-26T14:00:09.855Z,13.60
2019-03-26T14:02:39.394Z,13.50
2019-03-26T14:05:22.988Z,13.50
2019-03-26T14:07:52.628Z,13.40
2019-03-26T14:10:22.334Z,13.30
2019-03-26T14:12:51.934Z,13.20
2019-03-26T14:15:21.624Z,13.20
2019-03-26T14:17:51.034Z,13.10
2019-03-26T14:20:20.700Z,13.10
2019-03-26T14:22:50.212Z,13.30
2019-03-26T14:25:19.736Z,13.40
2019-03-26T14:27:49.172Z,13.60
2019-03-26T14:30:38.673Z,13.70
2019-03-26T14:33:08.541Z,13.80
2019-03-26T14:35:38.508Z,13.90
2019-03-26T14:38:08.137Z,14.00
2019-03-26T14:40:37.796Z,14.10
2019-03-26T14:43:07.583Z,14.20
2019-03-26T14:45:37.075Z,14.20
2019-03-26T14:48:06.698Z,14.20
2019-03-26T14:50:36.169Z,14.10
2019-03-26T14:53:05.700Z,14.10
2019-03-26T14:55:35.250Z,14.10
2019-03-26T14:58:05.016Z,14.10
2019-03-26T15:00:34.471Z,14.00
2019-03-26T15:03:03.996Z,13.90
2019-03-26T15:05:33.538Z,13.90
2019-03-26T15:08:03.095Z,13.90
2019-03-26T15:10:32.536Z,13.90
2019-03-26T15:13:01.984Z,13.90
2019-03-26T15:15:31.487Z,13.90
2019-03-26T15:18:00.952Z,13.90
2019-03-26T15:20:30.374Z,13.90
2019-03-26T15:23:00.014Z,13.70
2019-03-26T15:25:29.564Z,13.60
2019-03-26T15:27:58.997Z,13.50
2019-03-26T15:30:28.430Z,13.50
2019-03-26T15:32:57.925Z,13.50
2019-03-26T15:35:27.454Z,13.50
2019-03-26T15:37:56.857Z,13.40
2019-03-26T15:40:26.356Z,13.40
2019-03-26T15:42:55.926Z,13.40
2019-03-26T15:45:25.406Z,13.30
2019-03-26T15:47:54.960Z,13.30
2019-03-26T15:50:44.998Z,13.20
2019-03-26T15:53:14.950Z,13.10
2019-03-26T15:55:44.617Z,13.20
2019-03-26T15:58:14.144Z,13.20
2019-03-26T16:00:43.606Z,13.20
2019-03-26T16:03:13.088Z,13.10
2019-03-26T16:05:42.478Z,13.10
2019-03-26T16:08:11.901Z,13.10
2019-03-26T16:10:41.505Z,13.00
2019-03-26T16:13:11.006Z,13.00
2019-03-26T16:15:44.793Z,12.90
2019-03-26T16:18:11.610Z,12.90
2019-03-26T16:20:41.058Z,13.00
2019-03-26T16:23:10.713Z,13.00
2019-03-26T16:25:40.209Z,13.00
2019-03-26T16:28:09.680Z,13.10
2019-03-26T16:30:39.106Z,13.00
2019-03-26T16:33:08.666Z,13.00
2019-03-26T16:35:40.246Z,13.00
2019-03-26T16:38:09.506Z,13.00
2019-03-26T16:40:38.985Z,13.00
2019-03-26T16:43:08.460Z,13.00
2019-03-26T16:45:38.028Z,13.00
2019-03-26T16:48:07.534Z,13.00
2019-03-26T16:50:37.146Z,13.00
2019-03-26T16:53:07.012Z,13.00
2019-03-26T16:55:36.571Z,13.00
2019-03-26T16:58:06.068Z,13.00
2019-03-26T17:00:35.778Z,13.00
2019-03-26T17:03:05.215Z,13.00
2019-03-26T17:05:34.904Z,13.00
2019-03-26T17:08:04.623Z,13.00
2019-03-26T17:10:34.130Z,13.00
2019-03-26T17:13:03.646Z,12.90
2019-03-26T17:15:33.032Z,12.90
2019-03-26T17:18:02.632Z,12.80
2019-03-26T17:20:32.170Z,12.70
2019-03-26T17:23:01.625Z,12.60
2019-03-26T17:25:31.197Z,12.50
2019-03-26T17:28:00.755Z,12.50
2019-03-26T17:30:30.265Z,12.50
2019-03-26T17:32:59.830Z,12.50
2019-03-26T17:35:30.215Z,12.50
2019-03-26T17:38:00.498Z,12.40
2019-03-26T17:40:30.057Z,12.40
2019-03-26T17:42:59.463Z,12.40
2019-03-26T17:45:29.166Z,12.30
2019-03-26T17:47:58.641Z,12.30
2019-03-26T17:50:28.065Z,12.30
2019-03-26T17:52:57.561Z,12.20
2019-03-26T17:55:27.017Z,12.20
2019-03-26T17:57:56.515Z,12.10
2019-03-26T18:00:40.603Z,12.00
2019-03-26T18:03:10.413Z,11.90
2019-03-26T18:05:39.965Z,11.80
2019-03-26T18:08:09.469Z,11.70
2019-03-26T18:10:38.972Z,11.60
2019-03-26T18:13:08.437Z,11.50
2019-03-26T18:15:37.873Z,11.50
2019-03-26T18:18:07.307Z,11.40
2019-03-26T18:20:36.907Z,11.40
2019-03-26T18:23:06.404Z,11.30
2019-03-26T18:25:35.960Z,11.30
2019-03-26T18:28:05.499Z,11.20
2019-03-26T18:30:34.924Z,11.20
2019-03-26T18:33:04.493Z,11.20
2019-03-26T18:35:33.897Z,11.10
2019-03-26T18:38:04.446Z,11.10
2019-03-26T18:40:33.863Z,11.10
2019-03-26T18:43:03.318Z,11.00
2019-03-26T18:45:32.775Z,11.00
2019-03-26T18:48:02.233Z,11.00
2019-03-26T18:50:31.734Z,10.90
2019-03-26T18:53:01.341Z,10.90
2019-03-26T18:55:30.845Z,10.90
2019-03-26T18:58:00.372Z,10.90
2019-03-26T19:00:34.128Z,10.90
2019-03-26T19:03:04.025Z,10.80
2019-03-26T19:05:33.528Z,10.80
2019-03-26T19:08:03.155Z,10.80
2019-03-26T19:10:33.919Z,10.80
2019-03-26T19:13:03.610Z,10.80
2019-03-26T19:15:33.141Z,10.80
2019-03-26T19:18:02.575Z,10.80
2019-03-26T19:20:32.187Z,10.80
2019-03-26T19:23:01.614Z,10.80
2019-03-26T19:25:31.145Z,10.70
2019-03-26T19:28:00.712Z,10.70
2019-03-26T19:30:30.295Z,10.70
2019-03-26T19:32:59.778Z,10.60
2019-03-26T19:35:29.463Z,10.60
2019-03-26T19:37:58.968Z,10.60
2019-03-26T19:40:28.441Z,10.50
2019-03-26T19:43:10.174Z,10.50
2019-03-26T19:45:28.939Z,10.40
2019-03-26T19:47:58.349Z,10.40
2019-03-26T19:50:27.757Z,10.40
2019-03-26T19:52:57.289Z,10.30
2019-03-26T19:55:26.835Z,10.30
2019-03-26T19:57:56.246Z,10.20
2019-03-26T20:00:26.943Z,10.10
2019-03-26T20:02:56.538Z,10.10
2019-03-26T20:05:26.063Z,10.10
2019-03-26T20:07:55.481Z,10.00
2019-03-26T20:10:25.027Z,10.00
2019-03-26T20:12:54.901Z,10.00
2019-03-26T20:15:24.433Z,10.00
2019-03-26T20:17:53.853Z,10.00
2019-03-26T20:20:23.453Z,10.10
2019-03-26T20:22:52.937Z,10.10
2019-03-26T20:25:22.438Z,10.00
2019-03-26T20:27:51.872Z,10.10
2019-03-26T20:30:21.539Z,10.10
2019-03-26T20:32:50.997Z,10.10
2019-03-26T20:35:20.461Z,10.10
2019-03-26T20:37:49.975Z,10.10
2019-03-26T20:40:19.501Z,10.10
2019-03-26T20:42:49.019Z,10.10
2019-03-26T20:45:18.877Z,10.10
2019-03-26T20:47:48.380Z,10.10
2019-03-26T20:50:19.631Z,10.10
2019-03-26T20:52:49.100Z,10.00
2019-03-26T20:55:21.622Z,10.00
2019-03-26T20:57:51.271Z,10.00
2019-03-26T21:00:37.782Z,10.00
2019-03-26T21:03:07.560Z,9.90
2019-03-26T21:05:37.110Z,9.90
2019-03-26T21:08:06.697Z,9.90
2019-03-26T21:10:36.996Z,9.80
2019-03-26T21:13:06.463Z,9.80
2019-03-26T21:15:35.991Z,9.70
2019-03-26T21:18:05.469Z,9.60
2019-03-26T21:20:34.899Z,9.60
2019-03-26T21:23:04.551Z,9.60
2019-03-26T21:25:34.099Z,9.50
2019-03-26T21:28:03.632Z,9.40
2019-03-26T21:30:33.063Z,9.40
2019-03-26T21:33:02.569Z,9.40
2019-03-26T21:35:32.067Z,9.30
2019-03-26T21:38:01.495Z,9.20
2019-03-26T21:40:31.074Z,9.20
2019-03-26T21:43:00.590Z,9.20
2019-03-26T21:45:34.819Z,9.20
2019-03-26T21:48:06.669Z,9.10
2019-03-26T21:50:36.264Z,9.00
2019-03-26T21:53:06.004Z,9.00
2019-03-26T21:55:35.434Z,9.00
2019-03-26T21:58:04.899Z,8.90
2019-03-26T22:00:34.496Z,8.90
2019-03-26T22:03:04.139Z,8.80
2019-03-26T22:05:33.645Z,8.80
2019-03-26T22:08:03.138Z,8.80
2019-03-26T22:10:32.558Z,8.70
2019-03-26T22:13:01.945Z,8.70
2019-03-26T22:15:31.501Z,8.70
2019-03-26T22:18:00.901Z,8.70
2019-03-26T22:20:30.508Z,8.60
2019-03-26T22:23:00.309Z,8.50
2019-03-26T22:25:29.876Z,8.50
2019-03-26T22:27:59.429Z,8.50
2019-03-26T22:30:28.922Z,8.50
2019-03-26T22:32:58.412Z,8.40
2019-03-26T22:35:27.893Z,8.30
2019-03-26T22:37:57.404Z,8.30
2019-03-26T22:40:26.898Z,8.20
2019-03-26T22:42:56.497Z,8.20
2019-03-26T22:45:26.098Z,8.10
2019-03-26T22:47:55.585Z,8.10
2019-03-26T22:50:24.988Z,8.10
2019-03-26T22:52:54.621Z,8.00
2019-03-26T22:55:24.100Z,8.00
2019-03-26T22:57:53.631Z,7.90
2019-03-26T23:00:23.389Z,7.90
2019-03-26T23:02:52.836Z,7.90
2019-03-26T23:05:22.290Z,7.80
2019-03-26T23:07:51.736Z,7.80
2019-03-26T23:10:21.448Z,7.80
2019-03-26T23:12:50.835Z,7.80
2019-03-26T23:15:24.956Z,7.80
2019-03-26T23:17:54.435Z,7.90
2019-03-26T23:20:24.115Z,7.90
2019-03-26T23:22:53.621Z,7.90
2019-03-26T23:25:23.097Z,8.00
2019-03-26T23:27:53.904Z,8.00
2019-03-26T23:30:23.334Z,8.00
2019-03-26T23:32:54.517Z,8.10
2019-03-26T23:35:23.992Z,8.10
2019-03-26T23:37:55.192Z,8.10
2019-03-26T23:40:24.624Z,8.10
2019-03-26T23:42:54.056Z,8.20
2019-03-26T23:45:23.564Z,8.20
2019-03-26T23:47:53.004Z,8.20
2019-03-26T23:50:22.457Z,8.20
2019-03-26T23:52:51.812Z,8.20
2019-03-26T23:55:21.276Z,8.20
2019-03-26T23:57:50.718Z,8.20
